sensor_id;sensor_type;location;lat;lon;timestamp;pressure;altitude;pressure_sealevel;temperature;humidity
8653;BME280;4364;52.426;9.424;2024-02-21T00:00:29;101605.44;;;7.72;100.00
8653;BME280;4364;52.426;9.424;2024-02-21T00:02:56;101596.94;;;7.68;100.00
8653;BME280;4364;52.426;9.424;2024-02-21T00:05:26;101599.66;;;7.68;100.00
8653;BME280;4364;52.426;9.424;2024-02-21T00:07:53;101602.00;;;7.65;100.00
8653;BME280;4364;52.426;9.424;2024-02-21T00:10:19;101586.72;;;7.58;100.00
8653;BME280;4364;52.426;9.424;2024-02-21T00:12:46;101584.25;;;7.69;100.00
8653;BME280;4364;52.426;9.424;2024-02-21T00:15:12;101580.47;;;7.70;100.00
8653;BME280;4364;52.426;9.424;2024-02-21T00:17:39;101579.44;;;7.71;100.00
8653;BME280;4364;52.426;9.424;2024-02-21T00:20:07;101575.19;;;7.63;100.00
8653;BME280;4364;52.426;9.424;2024-02-21T00:22:34;101576.94;;;7.69;100.00
8653;BME280;4364;52.426;9.424;2024-02-21T00:25:00;101577.88;;;7.63;100.00
8653;BME280;4364;52.426;9.424;2024-02-21T00:27:27;101571.88;;;7.73;100.00
8653;BME280;4364;52.426;9.424;2024-02-21T00:29:53;101559.78;;;7.64;100.00
8653;BME280;4364;52.426;9.424;2024-02-21T00:32:20;101550.94;;;7.68;100.00
8653;BME280;4364;52.426;9.424;2024-02-21T00:34:47;101544.81;;;7.61;100.00
8653;BME280;4364;52.426;9.424;2024-02-21T00:37:13;101537.50;;;7.61;100.00
8653;BME280;4364;52.426;9.424;2024-02-21T00:39:40;101541.31;;;7.60;100.00
8653;BME280;4364;52.426;9.424;2024-02-21T00:42:06;101541.66;;;7.64;100.00
8653;BME280;4364;52.426;9.424;2024-02-21T00:44:34;101534.56;;;7.63;100.00
8653;BME280;4364;52.426;9.424;2024-02-21T00:47:01;101523.03;;;7.68;100.00
8653;BME280;4364;52.426;9.424;2024-02-21T00:49:27;101523.03;;;7.68;100.00
8653;BME280;4364;52.426;9.424;2024-02-21T00:51:54;101523.97;;;7.73;100.00
8653;BME280;4364;52.426;9.424;2024-02-21T00:54:20;101523.16;;;7.73;100.00
8653;BME280;4364;52.426;9.424;2024-02-21T00:56:47;101516.34;;;7.70;100.00
8653;BME280;4364;52.426;9.424;2024-02-21T00:59:13;101530.94;;;7.69;100.00
8653;BME280;4364;52.426;9.424;2024-02-21T01:01:40;101524.56;;;7.75;100.00
8653;BME280;4364;52.426;9.424;2024-02-21T01:04:09;101517.97;;;7.71;100.00
8653;BME280;4364;52.426;9.424;2024-02-21T01:06:36;101503.28;;;7.67;100.00
8653;BME280;4364;52.426;9.424;2024-02-21T01:09:03;101506.19;;;7.77;100.00
8653;BME280;4364;52.426;9.424;2024-02-21T01:11:30;101512.78;;;7.70;100.00
8653;BME280;4364;52.426;9.424;2024-02-21T01:13:56;101507.72;;;7.73;100.00
8653;BME280;4364;52.426;9.424;2024-02-21T01:16:23;101508.81;;;7.72;100.00
8653;BME280;4364;52.426;9.424;2024-02-21T01:18:50;101501.97;;;7.70;100.00
8653;BME280;4364;52.426;9.424;2024-02-21T01:21:16;101500.56;;;7.67;100.00
8653;BME280;4364;52.426;9.424;2024-02-21T01:23:43;101497.16;;;7.72;100.00
8653;BME280;4364;52.426;9.424;2024-02-21T01:26:09;101495.63;;;7.64;100.00
8653;BME280;4364;52.426;9.424;2024-02-21T01:28:40;101500.56;;;7.67;100.00
8653;BME280;4364;52.426;9.424;2024-02-21T01:31:07;101499.63;;;7.61;100.00
8653;BME280;4364;52.426;9.424;2024-02-21T01:33:34;101497.97;;;7.72;100.00
8653;BME280;4364;52.426;9.424;2024-02-21T01:36:05;101487.81;;;7.79;100.00
8653;BME280;4364;52.426;9.424;2024-02-21T01:38:35;101490.53;;;7.79;100.00
8653;BME280;4364;52.426;9.424;2024-02-21T01:41:02;101487.72;;;7.74;100.00
8653;BME280;4364;52.426;9.424;2024-02-21T01:43:28;101484.66;;;7.71;100.00
8653;BME280;4364;52.426;9.424;2024-02-21T01:45:56;101488.28;;;7.76;100.00
8653;BME280;4364;52.426;9.424;2024-02-21T01:48:23;101485.94;;;7.80;100.00
8653;BME280;4364;52.426;9.424;2024-02-21T01:50:51;101475.59;;;7.77;100.00
8653;BME280;4364;52.426;9.424;2024-02-21T01:53:23;101474.41;;;7.73;100.00
8653;BME280;4364;52.426;9.424;2024-02-21T01:55:50;101467.81;;;7.81;100.00
8653;BME280;4364;52.426;9.424;2024-02-21T01:58:16;101465.22;;;7.86;100.00
8653;BME280;4364;52.426;9.424;2024-02-21T02:00:46;101472.16;;;7.82;100.00
8653;BME280;4364;52.426;9.424;2024-02-21T02:03:14;101461.22;;;7.76;100.00
8653;BME280;4364;52.426;9.424;2024-02-21T02:08:10;101454.72;;;7.89;100.00
8653;BME280;4364;52.426;9.424;2024-02-21T02:10:39;101450.50;;;7.82;100.00
8653;BME280;4364;52.426;9.424;2024-02-21T02:13:05;101438.84;;;7.81;100.00
8653;BME280;4364;52.426;9.424;2024-02-21T02:15:41;101434.63;;;7.85;100.00
8653;BME280;4364;52.426;9.424;2024-02-21T02:18:09;101442.59;;;7.80;100.00
8653;BME280;4364;52.426;9.424;2024-02-21T02:20:36;101443.31;;;7.87;100.00
8653;BME280;4364;52.426;9.424;2024-02-21T02:23:20;101433.53;;;7.86;100.00
8653;BME280;4364;52.426;9.424;2024-02-21T02:25:47;101429.69;;;7.82;100.00
8653;BME280;4364;52.426;9.424;2024-02-21T02:28:20;101422.13;;;7.84;100.00
8653;BME280;4364;52.426;9.424;2024-02-21T02:30:47;101421.22;;;7.78;100.00
8653;BME280;4364;52.426;9.424;2024-02-21T02:33:14;101415.66;;;7.85;100.00
8653;BME280;4364;52.426;9.424;2024-02-21T02:35:40;101418.84;;;7.82;100.00
8653;BME280;4364;52.426;9.424;2024-02-21T02:38:07;101402.50;;;7.77;100.00
8653;BME280;4364;52.426;9.424;2024-02-21T02:40:34;101410.97;;;7.81;100.00
8653;BME280;4364;52.426;9.424;2024-02-21T02:43:01;101391.03;;;7.87;100.00
8653;BME280;4364;52.426;9.424;2024-02-21T02:45:28;101400.94;;;7.81;100.00
8653;BME280;4364;52.426;9.424;2024-02-21T02:47:55;101385.28;;;7.83;100.00
8653;BME280;4364;52.426;9.424;2024-02-21T02:50:24;101385.28;;;7.83;100.00
8653;BME280;4364;52.426;9.424;2024-02-21T02:52:50;101377.28;;;7.76;100.00
8653;BME280;4364;52.426;9.424;2024-02-21T02:55:17;101373.81;;;7.93;100.00
8653;BME280;4364;52.426;9.424;2024-02-21T02:57:44;101369.63;;;7.85;100.00
8653;BME280;4364;52.426;9.424;2024-02-21T03:00:12;101357.38;;;7.83;100.00
8653;BME280;4364;52.426;9.424;2024-02-21T03:02:40;101358.44;;;7.82;100.00
8653;BME280;4364;52.426;9.424;2024-02-21T03:05:14;101352.78;;;7.83;100.00
8653;BME280;4364;52.426;9.424;2024-02-21T03:07:43;101341.22;;;7.88;100.00
8653;BME280;4364;52.426;9.424;2024-02-21T03:10:10;101329.97;;;7.79;100.00
8653;BME280;4364;52.426;9.424;2024-02-21T03:12:38;101309.91;;;7.92;100.00
8653;BME280;4364;52.426;9.424;2024-02-21T03:15:05;101314.72;;;7.90;100.00
8653;BME280;4364;52.426;9.424;2024-02-21T03:17:32;101314.06;;;7.83;100.00
8653;BME280;4364;52.426;9.424;2024-02-21T03:20:03;101321.47;;;7.87;100.00
8653;BME280;4364;52.426;9.424;2024-02-21T03:22:37;101312.66;;;7.80;100.00
8653;BME280;4364;52.426;9.424;2024-02-21T03:25:04;101304.38;;;7.87;100.00
8653;BME280;4364;52.426;9.424;2024-02-21T03:27:32;101288.03;;;7.82;100.00
8653;BME280;4364;52.426;9.424;2024-02-21T03:29:58;101289.34;;;7.79;100.00
8653;BME280;4364;52.426;9.424;2024-02-21T03:32:24;101287.56;;;7.85;100.00
8653;BME280;4364;52.426;9.424;2024-02-21T03:34:51;101293.13;;;7.78;100.00
8653;BME280;4364;52.426;9.424;2024-02-21T03:37:17;101286.41;;;7.81;100.00
8653;BME280;4364;52.426;9.424;2024-02-21T03:39:44;101275.19;;;7.89;100.00
8653;BME280;4364;52.426;9.424;2024-02-21T03:42:11;101275.09;;;7.84;100.00
8653;BME280;4364;52.426;9.424;2024-02-21T03:44:38;101290.09;;;7.74;100.00
8653;BME280;4364;52.426;9.424;2024-02-21T03:47:05;101301.81;;;7.80;100.00
8653;BME280;4364;52.426;9.424;2024-02-21T03:49:32;101300.28;;;7.84;100.00
8653;BME280;4364;52.426;9.424;2024-02-21T03:51:58;101296.25;;;7.87;100.00
8653;BME280;4364;52.426;9.424;2024-02-21T03:54:24;101321.63;;;7.81;100.00
8653;BME280;4364;52.426;9.424;2024-02-21T03:56:51;101328.88;;;7.80;100.00
8653;BME280;4364;52.426;9.424;2024-02-21T03:59:17;101328.56;;;7.76;100.00
8653;BME280;4364;52.426;9.424;2024-02-21T04:01:44;101340.81;;;7.79;100.00
8653;BME280;4364;52.426;9.424;2024-02-21T04:04:11;101346.22;;;7.79;100.00
8653;BME280;4364;52.426;9.424;2024-02-21T04:06:46;101353.63;;;7.84;100.00
8653;BME280;4364;52.426;9.424;2024-02-21T04:09:13;101350.06;;;7.83;100.00
8653;BME280;4364;52.426;9.424;2024-02-21T04:11:39;101344.84;;;7.93;100.00
8653;BME280;4364;52.426;9.424;2024-02-21T04:14:06;101341.56;;;7.91;100.00
8653;BME280;4364;52.426;9.424;2024-02-21T04:16:33;101353.22;;;7.92;100.00
8653;BME280;4364;52.426;9.424;2024-02-21T04:19:00;101344.50;;;7.90;100.00
8653;BME280;4364;52.426;9.424;2024-02-21T04:21:28;101350.16;;;7.88;100.00
8653;BME280;4364;52.426;9.424;2024-02-21T04:23:54;101350.00;;;7.95;100.00
8653;BME280;4364;52.426;9.424;2024-02-21T04:26:21;101339.00;;;7.85;100.00
8653;BME280;4364;52.426;9.424;2024-02-21T04:28:48;101341.72;;;7.85;100.00
8653;BME280;4364;52.426;9.424;2024-02-21T04:31:14;101336.63;;;7.88;100.00
8653;BME280;4364;52.426;9.424;2024-02-21T04:33:41;101329.25;;;7.84;100.00
8653;BME280;4364;52.426;9.424;2024-02-21T04:36:08;101335.63;;;7.77;100.00
8653;BME280;4364;52.426;9.424;2024-02-21T04:38:35;101327.34;;;7.84;100.00
8653;BME280;4364;52.426;9.424;2024-02-21T04:41:02;101321.38;;;7.82;100.00
8653;BME280;4364;52.426;9.424;2024-02-21T04:43:29;101317.00;;;7.81;100.00
8653;BME280;4364;52.426;9.424;2024-02-21T04:45:55;101329.72;;;7.81;100.00
8653;BME280;4364;52.426;9.424;2024-02-21T04:48:22;101330.31;;;7.83;100.00
8653;BME280;4364;52.426;9.424;2024-02-21T04:50:48;101328.81;;;7.75;100.00
8653;BME280;4364;52.426;9.424;2024-02-21T04:53:15;101329.56;;;7.70;100.00
8653;BME280;4364;52.426;9.424;2024-02-21T04:55:42;101330.84;;;7.68;100.00
8653;BME280;4364;52.426;9.424;2024-02-21T04:58:08;101336.09;;;7.74;100.00
8653;BME280;4364;52.426;9.424;2024-02-21T05:00:35;101317.63;;;7.71;100.00
8653;BME280;4364;52.426;9.424;2024-02-21T05:03:02;101317.63;;;7.71;100.00
8653;BME280;4364;52.426;9.424;2024-02-21T05:05:29;101317.16;;;7.74;100.00
8653;BME280;4364;52.426;9.424;2024-02-21T05:07:55;101318.63;;;7.65;100.00
8653;BME280;4364;52.426;9.424;2024-02-21T05:10:22;101306.09;;;7.76;100.00
8653;BME280;4364;52.426;9.424;2024-02-21T05:12:49;101313.47;;;7.64;100.00
8653;BME280;4364;52.426;9.424;2024-02-21T05:15:16;101318.56;;;7.77;100.00
8653;BME280;4364;52.426;9.424;2024-02-21T05:17:42;101307.91;;;7.70;100.00
8653;BME280;4364;52.426;9.424;2024-02-21T05:20:10;101308.63;;;7.66;100.00
8653;BME280;4364;52.426;9.424;2024-02-21T05:22:37;101309.34;;;7.61;100.00
8653;BME280;4364;52.426;9.424;2024-02-21T05:25:04;101305.38;;;7.81;100.00
8653;BME280;4364;52.426;9.424;2024-02-21T05:27:30;101310.94;;;7.74;100.00
8653;BME280;4364;52.426;9.424;2024-02-21T05:29:57;101305.28;;;7.75;100.00
8653;BME280;4364;52.426;9.424;2024-02-21T05:32:25;101320.34;;;7.71;100.00
8653;BME280;4364;52.426;9.424;2024-02-21T05:34:52;101310.09;;;7.73;100.00
8653;BME280;4364;52.426;9.424;2024-02-21T05:37:19;101306.91;;;7.76;100.00
8653;BME280;4364;52.426;9.424;2024-02-21T05:39:45;101305.91;;;7.66;100.00
8653;BME280;4364;52.426;9.424;2024-02-21T05:42:11;101315.16;;;7.70;100.00
8653;BME280;4364;52.426;9.424;2024-02-21T05:44:38;101311.88;;;7.68;100.00
8653;BME280;4364;52.426;9.424;2024-02-21T05:47:05;101304.66;;;7.73;100.00
8653;BME280;4364;52.426;9.424;2024-02-21T05:49:36;101306.56;;;7.73;100.00
8653;BME280;4364;52.426;9.424;2024-02-21T05:52:04;101300.53;;;7.83;100.00
8653;BME280;4364;52.426;9.424;2024-02-21T05:54:32;101298.22;;;7.74;100.00
8653;BME280;4364;52.426;9.424;2024-02-21T05:56:59;101294.59;;;7.69;100.00
8653;BME280;4364;52.426;9.424;2024-02-21T05:59:25;101290.97;;;7.63;100.00
8653;BME280;4364;52.426;9.424;2024-02-21T06:01:58;101295.56;;;7.63;100.00
8653;BME280;4364;52.426;9.424;2024-02-21T06:04:25;101285.16;;;7.71;100.00
8653;BME280;4364;52.426;9.424;2024-02-21T06:06:51;101280.81;;;7.70;100.00
8653;BME280;4364;52.426;9.424;2024-02-21T06:09:18;101277.88;;;7.72;100.00
8653;BME280;4364;52.426;9.424;2024-02-21T06:11:44;101277.19;;;7.65;100.00
8653;BME280;4364;52.426;9.424;2024-02-21T06:14:12;101274.81;;;7.68;100.00
8653;BME280;4364;52.426;9.424;2024-02-21T06:16:39;101277.75;;;7.67;100.00
8653;BME280;4364;52.426;9.424;2024-02-21T06:19:06;101280.88;;;7.58;100.00
8653;BME280;4364;52.426;9.424;2024-02-21T06:21:36;101277.09;;;7.59;100.00
8653;BME280;4364;52.426;9.424;2024-02-21T06:24:03;101283.78;;;7.69;100.00
8653;BME280;4364;52.426;9.424;2024-02-21T06:26:30;101281.78;;;7.64;100.00
8653;BME280;4364;52.426;9.424;2024-02-21T06:28:56;101283.44;;;7.65;100.00
8653;BME280;4364;52.426;9.424;2024-02-21T06:31:23;101274.56;;;7.70;100.00
8653;BME280;4364;52.426;9.424;2024-02-21T06:33:50;101266.84;;;7.61;100.00
8653;BME280;4364;52.426;9.424;2024-02-21T06:36:17;101273.34;;;7.60;100.00
8653;BME280;4364;52.426;9.424;2024-02-21T06:38:43;101273.09;;;7.62;100.00
8653;BME280;4364;52.426;9.424;2024-02-21T06:41:17;101276.28;;;7.59;100.00
8653;BME280;4364;52.426;9.424;2024-02-21T06:43:48;101282.13;;;7.68;100.00
8653;BME280;4364;52.426;9.424;2024-02-21T06:46:25;101273.34;;;7.60;100.00
8653;BME280;4364;52.426;9.424;2024-02-21T06:48:52;101270.06;;;7.58;100.00
8653;BME280;4364;52.426;9.424;2024-02-21T06:51:19;101268.41;;;7.57;100.00
8653;BME280;4364;52.426;9.424;2024-02-21T06:53:46;101276.53;;;7.57;100.00
8653;BME280;4364;52.426;9.424;2024-02-21T06:56:13;101281.94;;;7.57;100.00
8653;BME280;4364;52.426;9.424;2024-02-21T06:58:39;101283.47;;;7.53;100.00
8653;BME280;4364;52.426;9.424;2024-02-21T07:01:07;101279.31;;;7.63;100.00
8653;BME280;4364;52.426;9.424;2024-02-21T07:03:34;101285.44;;;7.58;100.00
8653;BME280;4364;52.426;9.424;2024-02-21T07:06:00;101290.38;;;7.61;100.00
8653;BME280;4364;52.426;9.424;2024-02-21T07:08:27;101293.56;;;7.58;100.00
8653;BME280;4364;52.426;9.424;2024-02-21T07:10:54;101291.94;;;7.57;100.00
8653;BME280;4364;52.426;9.424;2024-02-21T07:13:21;101285.84;;;7.50;100.00
8653;BME280;4364;52.426;9.424;2024-02-21T07:15:49;101267.81;;;7.55;100.00
8653;BME280;4364;52.426;9.424;2024-02-21T07:18:15;101267.81;;;7.55;100.00
8653;BME280;4364;52.426;9.424;2024-02-21T07:20:42;101265.44;;;7.59;100.00
8653;BME280;4364;52.426;9.424;2024-02-21T07:23:09;101268.97;;;7.59;100.00
8653;BME280;4364;52.426;9.424;2024-02-21T07:25:35;101261.19;;;7.63;100.00
8653;BME280;4364;52.426;9.424;2024-02-21T07:28:02;101260.28;;;7.57;100.00
8653;BME280;4364;52.426;9.424;2024-02-21T07:30:29;101270.78;;;7.54;100.00
8653;BME280;4364;52.426;9.424;2024-02-21T07:32:55;101268.97;;;7.59;100.00
8653;BME280;4364;52.426;9.424;2024-02-21T07:35:22;101275.66;;;7.69;100.00
8653;BME280;4364;52.426;9.424;2024-02-21T07:37:49;101282.34;;;7.66;100.00
8653;BME280;4364;52.426;9.424;2024-02-21T07:40:16;101283.44;;;7.65;100.00
8653;BME280;4364;52.426;9.424;2024-02-21T07:42:43;101285.13;;;7.54;100.00
8653;BME280;4364;52.426;9.424;2024-02-21T07:45:14;101275.50;;;7.75;100.00
8653;BME280;4364;52.426;9.424;2024-02-21T07:47:40;101277.41;;;7.63;100.00
8653;BME280;4364;52.426;9.424;2024-02-21T07:50:07;101273.84;;;7.74;100.00
8653;BME280;4364;52.426;9.424;2024-02-21T07:52:34;101270.97;;;7.81;100.00
8653;BME280;4364;52.426;9.424;2024-02-21T07:55:01;101272.31;;;7.78;100.00
8653;BME280;4364;52.426;9.424;2024-02-21T07:57:27;101276.16;;;7.83;100.00
8653;BME280;4364;52.426;9.424;2024-02-21T07:59:54;101271.31;;;7.85;100.00
8653;BME280;4364;52.426;9.424;2024-02-21T08:02:20;101270.25;;;7.86;100.00
8653;BME280;4364;52.426;9.424;2024-02-21T08:04:47;101268.75;;;7.95;100.00
8653;BME280;4364;52.426;9.424;2024-02-21T08:07:13;101272.16;;;8.02;100.00
8653;BME280;4364;52.426;9.424;2024-02-21T08:09:40;101270.75;;;8.00;100.00
8653;BME280;4364;52.426;9.424;2024-02-21T08:12:07;101266.97;;;8.01;100.00
8653;BME280;4364;52.426;9.424;2024-02-21T08:14:34;101272.66;;;7.99;100.00
8653;BME280;4364;52.426;9.424;2024-02-21T08:17:00;101261.31;;;8.02;100.00
8653;BME280;4364;52.426;9.424;2024-02-21T08:19:28;101268.69;;;8.07;100.00
8653;BME280;4364;52.426;9.424;2024-02-21T08:21:54;101267.88;;;8.06;100.00
8653;BME280;4364;52.426;9.424;2024-02-21T08:24:21;101262.78;;;8.10;100.00
8653;BME280;4364;52.426;9.424;2024-02-21T08:26:49;101254.72;;;8.15;100.00
8653;BME280;4364;52.426;9.424;2024-02-21T08:29:15;101260.16;;;8.15;100.00
8653;BME280;4364;52.426;9.424;2024-02-21T08:31:42;101255.41;;;8.22;100.00
8653;BME280;4364;52.426;9.424;2024-02-21T08:34:08;101254.31;;;8.23;100.00
8653;BME280;4364;52.426;9.424;2024-02-21T08:36:35;101252.09;;;8.20;100.00
8653;BME280;4364;52.426;9.424;2024-02-21T08:39:03;101252.53;;;8.29;100.00
8653;BME280;4364;52.426;9.424;2024-02-21T08:41:31;101238.75;;;8.30;100.00
8653;BME280;4364;52.426;9.424;2024-02-21T08:44:17;101243.56;;;8.28;100.00
8653;BME280;4364;52.426;9.424;2024-02-21T08:46:44;101242.09;;;8.38;100.00
8653;BME280;4364;52.426;9.424;2024-02-21T08:49:10;101235.50;;;8.33;100.00
8653;BME280;4364;52.426;9.424;2024-02-21T08:51:37;101235.25;;;8.35;100.00
8653;BME280;4364;52.426;9.424;2024-02-21T08:54:04;101220.72;;;8.41;100.00
8653;BME280;4364;52.426;9.424;2024-02-21T08:56:31;101227.56;;;8.44;100.00
8653;BME280;4364;52.426;9.424;2024-02-21T08:58:57;101232.63;;;8.40;100.00
8653;BME280;4364;52.426;9.424;2024-02-21T09:01:24;101219.66;;;8.42;100.00
8653;BME280;4364;52.426;9.424;2024-02-21T09:03:52;101211.94;;;8.51;100.00
8653;BME280;4364;52.426;9.424;2024-02-21T09:06:20;101213.22;;;8.65;100.00
8653;BME280;4364;52.426;9.424;2024-02-21T09:08:47;101214.22;;;8.59;100.00
8653;BME280;4364;52.426;9.424;2024-02-21T09:11:13;101215.09;;;8.65;99.76
8653;BME280;4364;52.426;9.424;2024-02-21T09:13:40;101210.53;;;8.65;98.97
8653;BME280;4364;52.426;9.424;2024-02-21T09:16:07;101206.22;;;8.69;99.21
8653;BME280;4364;52.426;9.424;2024-02-21T09:18:33;101209.19;;;8.68;97.82
8653;BME280;4364;52.426;9.424;2024-02-21T09:21:00;101209.31;;;8.78;97.50
8653;BME280;4364;52.426;9.424;2024-02-21T09:23:29;101199.75;;;8.70;96.85
8653;BME280;4364;52.426;9.424;2024-02-21T09:25:58;101203.06;;;8.78;97.39
8653;BME280;4364;52.426;9.424;2024-02-21T09:28:28;101201.91;;;8.74;96.34
8653;BME280;4364;52.426;9.424;2024-02-21T09:30:55;101201.41;;;8.77;97.13
8653;BME280;4364;52.426;9.424;2024-02-21T09:33:21;101202.00;;;8.79;96.69
8653;BME280;4364;52.426;9.424;2024-02-21T09:35:58;101200.34;;;8.78;96.03
8653;BME280;4364;52.426;9.424;2024-02-21T09:38:24;101191.22;;;8.84;94.82
8653;BME280;4364;52.426;9.424;2024-02-21T09:40:59;101185.00;;;8.88;94.11
8653;BME280;4364;52.426;9.424;2024-02-21T09:43:27;101185.59;;;8.90;93.91
8653;BME280;4364;52.426;9.424;2024-02-21T09:45:55;101192.19;;;9.00;93.67
8653;BME280;4364;52.426;9.424;2024-02-21T09:48:35;101181.09;;;9.01;93.46
8653;BME280;4364;52.426;9.424;2024-02-21T09:51:09;101177.06;;;9.04;93.61
8653;BME280;4364;52.426;9.424;2024-02-21T09:53:40;101189.34;;;9.12;91.91
8653;BME280;4364;52.426;9.424;2024-02-21T09:56:07;101183.16;;;9.16;91.22
8653;BME280;4364;52.426;9.424;2024-02-21T09:58:36;101188.03;;;9.14;91.73
8653;BME280;4364;52.426;9.424;2024-02-21T10:01:03;101187.56;;;9.22;91.46
8653;BME280;4364;52.426;9.424;2024-02-21T10:03:51;101182.69;;;9.24;90.13
8653;BME280;4364;52.426;9.424;2024-02-21T10:06:17;101177.56;;;9.28;90.00
8653;BME280;4364;52.426;9.424;2024-02-21T10:08:51;101166.50;;;9.35;90.22
8653;BME280;4364;52.426;9.424;2024-02-21T10:11:25;101164.59;;;9.35;89.22
8653;BME280;4364;52.426;9.424;2024-02-21T10:14:03;101160.66;;;9.48;88.38
8653;BME280;4364;52.426;9.424;2024-02-21T10:16:30;101152.56;;;9.53;88.33
8653;BME280;4364;52.426;9.424;2024-02-21T10:18:57;101159.38;;;9.56;88.08
8653;BME280;4364;52.426;9.424;2024-02-21T10:21:23;101149.03;;;9.53;88.17
8653;BME280;4364;52.426;9.424;2024-02-21T10:23:50;101142.88;;;9.62;87.93
8653;BME280;4364;52.426;9.424;2024-02-21T10:26:20;101141.56;;;9.70;87.80
8653;BME280;4364;52.426;9.424;2024-02-21T10:28:47;101131.28;;;9.72;87.44
8653;BME280;4364;52.426;9.424;2024-02-21T10:31:25;101134.75;;;9.68;87.40
8653;BME280;4364;52.426;9.424;2024-02-21T10:34:00;101138.50;;;9.61;87.07
8653;BME280;4364;52.426;9.424;2024-02-21T10:36:30;101131.97;;;9.57;86.81
8653;BME280;4364;52.426;9.424;2024-02-21T10:38:57;101128.69;;;9.55;86.00
8653;BME280;4364;52.426;9.424;2024-02-21T10:41:24;101118.91;;;9.54;86.86
8653;BME280;4364;52.426;9.424;2024-02-21T10:43:52;101121.16;;;9.62;87.09
8653;BME280;4364;52.426;9.424;2024-02-21T10:46:21;101107.00;;;9.60;85.60
8653;BME280;4364;52.426;9.424;2024-02-21T10:49:03;101106.25;;;9.70;85.99
8653;BME280;4364;52.426;9.424;2024-02-21T10:51:34;101104.13;;;9.72;85.37
8653;BME280;4364;52.426;9.424;2024-02-21T10:56:50;101110.63;;;9.71;83.76
8653;BME280;4364;52.426;9.424;2024-02-21T10:59:18;101100.63;;;9.82;84.60
8653;BME280;4364;52.426;9.424;2024-02-21T11:01:44;101100.59;;;9.77;83.87
8653;BME280;4364;52.426;9.424;2024-02-21T11:04:11;101087.88;;;9.82;83.46
8653;BME280;4364;52.426;9.424;2024-02-21T11:06:41;101098.53;;;9.89;82.34
8653;BME280;4364;52.426;9.424;2024-02-21T11:09:10;101081.56;;;9.72;82.08
8653;BME280;4364;52.426;9.424;2024-02-21T11:11:43;101072.84;;;9.70;81.64
8653;BME280;4364;52.426;9.424;2024-02-21T11:14:11;101081.56;;;9.72;82.35
8653;BME280;4364;52.426;9.424;2024-02-21T11:16:44;101063.19;;;9.84;81.33
8653;BME280;4364;52.426;9.424;2024-02-21T11:19:25;101067.22;;;9.81;83.03
8653;BME280;4364;52.426;9.424;2024-02-21T11:21:53;101053.94;;;9.85;81.46
8653;BME280;4364;52.426;9.424;2024-02-21T11:24:32;101063.16;;;9.79;80.85
8653;BME280;4364;52.426;9.424;2024-02-21T11:29:44;101053.66;;;9.87;78.55
8653;BME280;4364;52.426;9.424;2024-02-21T11:32:14;101042.53;;;9.83;79.27
8653;BME280;4364;52.426;9.424;2024-02-21T11:34:53;101039.81;;;9.83;78.71
8653;BME280;4364;52.426;9.424;2024-02-21T11:37:20;101050.31;;;9.69;77.70
8653;BME280;4364;52.426;9.424;2024-02-21T11:39:46;101041.66;;;9.72;78.39
8653;BME280;4364;52.426;9.424;2024-02-21T11:42:16;101038.13;;;9.77;78.38
8653;BME280;4364;52.426;9.424;2024-02-21T11:44:43;101030.03;;;9.87;77.82
8653;BME280;4364;52.426;9.424;2024-02-21T11:47:09;101015.16;;;10.00;77.27
8653;BME280;4364;52.426;9.424;2024-02-21T11:49:38;101010.25;;;9.97;76.99
8653;BME280;4364;52.426;9.424;2024-02-21T11:52:07;100993.38;;;9.90;77.87
8653;BME280;4364;52.426;9.424;2024-02-21T11:54:34;101004.28;;;9.95;77.57
8653;BME280;4364;52.426;9.424;2024-02-21T11:57:01;101000.78;;;10.05;76.86
8653;BME280;4364;52.426;9.424;2024-02-21T11:59:31;100995.38;;;10.15;75.82
8653;BME280;4364;52.426;9.424;2024-02-21T12:01:59;100982.34;;;10.22;75.73
8653;BME280;4364;52.426;9.424;2024-02-21T12:04:26;100987.53;;;10.29;75.61
8653;BME280;4364;52.426;9.424;2024-02-21T12:06:53;100980.22;;;10.24;76.46
8653;BME280;4364;52.426;9.424;2024-02-21T12:09:22;100979.41;;;10.34;75.45
8653;BME280;4364;52.426;9.424;2024-02-21T12:12:00;100977.50;;;10.29;74.52
8653;BME280;4364;52.426;9.424;2024-02-21T12:14:28;100970.69;;;10.27;74.14
8653;BME280;4364;52.426;9.424;2024-02-21T12:16:55;100974.28;;;10.37;74.21
8653;BME280;4364;52.426;9.424;2024-02-21T12:19:22;100961.47;;;10.28;73.16
8653;BME280;4364;52.426;9.424;2024-02-21T12:21:49;100958.22;;;10.31;73.24
8653;BME280;4364;52.426;9.424;2024-02-21T12:24:22;100955.25;;;10.32;73.11
8653;BME280;4364;52.426;9.424;2024-02-21T12:26:52;100951.97;;;10.35;73.50
8653;BME280;4364;52.426;9.424;2024-02-21T12:29:20;100946.28;;;10.47;74.25
8653;BME280;4364;52.426;9.424;2024-02-21T12:31:47;100951.97;;;10.41;73.12
8653;BME280;4364;52.426;9.424;2024-02-21T12:34:14;100946.31;;;10.57;72.83
8653;BME280;4364;52.426;9.424;2024-02-21T12:36:43;100947.38;;;10.41;73.05
8653;BME280;4364;52.426;9.424;2024-02-21T12:39:10;100944.09;;;10.34;74.29
8653;BME280;4364;52.426;9.424;2024-02-21T12:41:37;100953.91;;;10.45;74.12
8653;BME280;4364;52.426;9.424;2024-02-21T12:44:10;100935.41;;;10.42;73.82
8653;BME280;4364;52.426;9.424;2024-02-21T12:46:41;100942.75;;;10.52;72.88
8653;BME280;4364;52.426;9.424;2024-02-21T12:49:08;100941.09;;;10.41;73.36
8653;BME280;4364;52.426;9.424;2024-02-21T12:51:35;100926.97;;;10.44;74.04
8653;BME280;4364;52.426;9.424;2024-02-21T12:54:01;100940.56;;;10.33;72.94
8653;BME280;4364;52.426;9.424;2024-02-21T12:56:29;100915.28;;;10.38;74.46
8653;BME280;4364;52.426;9.424;2024-02-21T12:58:57;100914.75;;;10.46;74.77
8653;BME280;4364;52.426;9.424;2024-02-21T13:01:24;100913.38;;;10.49;74.26
8653;BME280;4364;52.426;9.424;2024-02-21T13:03:51;100904.69;;;10.57;73.51
8653;BME280;4364;52.426;9.424;2024-02-21T13:06:17;100894.34;;;10.33;74.30
8653;BME280;4364;52.426;9.424;2024-02-21T13:08:45;100886.47;;;10.37;75.11
8653;BME280;4364;52.426;9.424;2024-02-21T13:11:12;100882.91;;;10.31;74.27
8653;BME280;4364;52.426;9.424;2024-02-21T13:13:39;100873.72;;;10.32;75.11
8653;BME280;4364;52.426;9.424;2024-02-21T13:16:06;100882.09;;;10.26;74.61
8653;BME280;4364;52.426;9.424;2024-02-21T13:18:35;100870.44;;;10.35;74.43
8653;BME280;4364;52.426;9.424;2024-02-21T13:21:07;100859.28;;;10.32;75.26
8653;BME280;4364;52.426;9.424;2024-02-21T13:23:33;100866.59;;;10.21;75.90